WetterOnline ( https://www.wetteronline.de )

Wetter aktuell Giesen

Aktuelles Wetter: Alfeld (148m)

6-stündlich | Neueste Meldungen
Ortszeit Temperatur Wetter
Di, 23.04. 14:00 17.4° C wolkenlos
Di, 23.04. 8:00 10.1° C wolkenlos
Di, 23.04. 2:00 6.3° C wolkenlos
Mo, 22.04. 20:00 16.1° C wolkenlos
Mo, 22.04. 14:00 19.5° C wolkenlos
Mo, 22.04. 8:00 6.9° C wolkenlos
Mo, 22.04. 2:00 6.9° C wolkenlos
So, 21.04. 20:00 17.4° C wolkenlos
Ortszeit Temperatur Wetter
Di, 23.04. 18:00 18.3° C fast wolkenlos
Di, 23.04. 17:50 18.3° C fast wolkenlos
Di, 23.04. 17:40 18.6° C leicht bewölkt
Di, 23.04. 17:30 18.8° C fast wolkenlos
Di, 23.04. 17:20 18.8° C wolkenlos
Di, 23.04. 17:10 19.1° C wolkenlos
Di, 23.04. 17:00 18.8° C fast wolkenlos
Di, 23.04. 16:30 18.9° C fast wolkenlos
Di, 23.04. 16:00 18.9° C fast wolkenlos
Di, 23.04. 15:30 18.3° C wolkenlos
Di, 23.04. 15:00 18.2° C wolkenlos
Ortszeit Relative Feuchte Sichtweite
Di, 23.04. 14:00 47% 30 km
Di, 23.04. 8:00 67% 35 km
Di, 23.04. 2:00 72% 60 km
Mo, 22.04. 20:00 38% 65 km
Mo, 22.04. 14:00 33% 65 km
Mo, 22.04. 8:00 78% 40 km
Mo, 22.04. 2:00 74% 40 km
So, 21.04. 20:00 38% >70 km
Ortszeit Relative Feuchte Sichtweite
Di, 23.04. 18:00 48% 30 km
Di, 23.04. 17:50 48% -
Di, 23.04. 17:40 47% -
Di, 23.04. 17:30 47% 30 km
Di, 23.04. 17:20 47% -
Di, 23.04. 17:10 47% -
Di, 23.04. 17:00 47% 40 km
Di, 23.04. 16:30 47% 30 km
Di, 23.04. 16:00 45% 30 km
Di, 23.04. 15:30 44% 40 km
Di, 23.04. 15:00 47% 35 km
Ortszeit Niederschlagsmenge Niederschlagsart
Di, 23.04. 14:00 0.0 l/m2 in 6 Std. -
Di, 23.04. 8:00 0.0 l/m2 in 12 Std. -
Di, 23.04. 2:00 0.0 l/m2 in 6 Std. -
Mo, 22.04. 20:00 0.0 l/m2 in 12 Std. -
Mo, 22.04. 14:00 0.0 l/m2 in 6 Std. -
Mo, 22.04. 8:00 0.0 l/m2 in 12 Std. -
Mo, 22.04. 2:00 0.0 l/m2 in 6 Std. -
So, 21.04. 20:00 0.0 l/m2 in 12 Std. -
Ortszeit Niederschlagsmenge Niederschlagsart
Di, 23.04. 18:00 0.0 l/m2 in 1 Std. -
Di, 23.04. 17:50 keine Meldung -
Di, 23.04. 17:40 keine Meldung -
Di, 23.04. 17:30 0.0 l/m2 in 1 Std. -
Di, 23.04. 17:20 keine Meldung -
Di, 23.04. 17:10 keine Meldung -
Di, 23.04. 17:00 0.0 l/m2 in 1 Std. -
Di, 23.04. 16:30 0.0 l/m2 in 1 Std. -
Di, 23.04. 16:00 0.0 l/m2 in 1 Std. -
Di, 23.04. 15:30 0.0 l/m2 in 1 Std. -
Di, 23.04. 15:00 0.0 l/m2 in 1 Std. -
Ortszeit Stärke Spitze Richtung
km/h Bft. km/h Grad Sektor
Di, 23.04. 14:00 31 5 57 110° O
Di, 23.04. 8:00 19 3 39 120° SO
Di, 23.04. 2:00 0 0 54 - -
Mo, 22.04. 20:00 24 4 50 110° O
Mo, 22.04. 14:00 17 3 35 70° O
Mo, 22.04. 8:00 4 1 11 120° SO
Mo, 22.04. 2:00 0 0 11 - -
So, 21.04. 20:00 6 1 22 160° S
Ortszeit Stärke Spitze Richtung
km/h Bft. km/h Grad Sektor
Di, 23.04. 18:00 22 4 46 100° O
Di, 23.04. 17:50 22 4 - 100° O
Di, 23.04. 17:40 19 3 - 110° O
Di, 23.04. 17:30 24 4 46 100° O
Di, 23.04. 17:20 24 4 - 100° O
Di, 23.04. 17:10 25 4 - 110° O
Di, 23.04. 17:00 22 4 43 100° O
Di, 23.04. 16:30 24 4 43 110° O
Di, 23.04. 16:00 24 4 46 110° O
Di, 23.04. 15:30 26 4 46 110° O
Di, 23.04. 15:00 24 4 56 110° O
Ortszeit Untergrenze Bedeckung Gattung
total tief tief mittel hoch
Di, 23.04. 14:00 - 0/8 0/8 - - -
Di, 23.04. 8:00 - 0/8 0/8 - - -
Di, 23.04. 2:00 - 0/8 0/8 - - -
Mo, 22.04. 20:00 - 0/8 0/8 - - -
Mo, 22.04. 14:00 - 0/8 0/8 - - -
Mo, 22.04. 8:00 - 0/8 0/8 - - -
Mo, 22.04. 2:00 - 0/8 0/8 - - -
So, 21.04. 20:00 - 0/8 0/8 - - -
Ortszeit Bedeckungsgrad in Achtel und Wolkenuntergrenze
Di, 23.04. 18:00 1(1500m)
Di, 23.04. 17:50 1(1500m)
Di, 23.04. 17:40 2(1500m)
Di, 23.04. 17:30 3(1500m)
Di, 23.04. 17:20 keine Wolken
Di, 23.04. 17:10 keine Wolken
Di, 23.04. 17:00 1(1500m)
Di, 23.04. 16:30 1(1500m)
Di, 23.04. 16:00 1(1500m)
Di, 23.04. 15:30 1(1500m)
Di, 23.04. 15:00 keine Wolken
Ortszeit Luftdruck NN (hPa) Tendenz (hPa in 3 Std.)
Di, 23.04. 14:00 1003 - 1,8
Di, 23.04. 8:00 1007 - 1,2
Di, 23.04. 2:00 1010 - 1,6
Mo, 22.04. 20:00 1011 - 0,2
Mo, 22.04. 14:00 1013 - 2,2
Mo, 22.04. 8:00 1016 - 0,4
Mo, 22.04. 2:00 1018 - 0,6
So, 21.04. 20:00 1018 - 1,2
Ortszeit Luftdruck NN (hPa) Tendenz (hPa in 3 Std.)
Di, 23.04. 18:00 1001 - 1,5
Di, 23.04. 17:50 1001 keine Meldung
Di, 23.04. 17:40 1001 keine Meldung
Di, 23.04. 17:30 1001 - 1,5
Di, 23.04. 17:20 1001 keine Meldung
Di, 23.04. 17:10 1001 keine Meldung
Di, 23.04. 17:00 1001 - 1,6
Di, 23.04. 16:30 1002 - 1,6
Di, 23.04. 16:00 1002 - 1,6
Di, 23.04. 15:30 1002 - 1,6
Di, 23.04. 15:00 1002 - 1,4
Ortszeit Schneehöhe (cm)
Di, 23.04. 14:00 0
Di, 23.04. 8:00 0
Di, 23.04. 2:00 0
Mo, 22.04. 20:00 0
Mo, 22.04. 14:00 0
Mo, 22.04. 8:00 0
Mo, 22.04. 2:00 0
So, 21.04. 20:00 0
Ortszeit Schneehöhe (cm)
Di, 23.04. 18:00 0
Di, 23.04. 17:50 0
Di, 23.04. 17:40 0
Di, 23.04. 17:30 0
Di, 23.04. 17:20 0
Di, 23.04. 17:10 0
Di, 23.04. 17:00 0
Di, 23.04. 16:30 0
Di, 23.04. 16:00 0
Di, 23.04. 15:30 0
Di, 23.04. 15:00 0
Link zu dieser Seite / Seite empfehlen

Das Wetter in ...